sensor_id;sensor_type;location;lat;lon;timestamp;pressure;altitude;pressure_sealevel;temperature;humidity
26775;BME280;14362;51.902;7.626;2023-03-25T00:02:08;99622.06;;;9.89;100.00
26775;BME280;14362;51.902;7.626;2023-03-25T00:06:10;99617.44;;;9.81;100.00
26775;BME280;14362;51.902;7.626;2023-03-25T00:10:13;99609.16;;;9.73;100.00
26775;BME280;14362;51.902;7.626;2023-03-25T00:14:14;99614.97;;;9.68;100.00
26775;BME280;14362;51.902;7.626;2023-03-25T00:18:16;99613.69;;;9.65;100.00
26775;BME280;14362;51.902;7.626;2023-03-25T00:22:17;99619.97;;;9.62;100.00
26775;BME280;14362;51.902;7.626;2023-03-25T00:26:21;99616.81;;;9.64;100.00
26775;BME280;14362;51.902;7.626;2023-03-25T00:30:22;99606.50;;;9.64;100.00
26775;BME280;14362;51.902;7.626;2023-03-25T00:34:24;99615.56;;;9.61;100.00
26775;BME280;14362;51.902;7.626;2023-03-25T00:38:26;99618.56;;;9.56;100.00
26775;BME280;14362;51.902;7.626;2023-03-25T00:42:33;99607.41;;;9.56;100.00
26775;BME280;14362;51.902;7.626;2023-03-25T00:46:35;99618.66;;;9.60;100.00
26775;BME280;14362;51.902;7.626;2023-03-25T00:50:36;99621.56;;;9.63;100.00
26775;BME280;14362;51.902;7.626;2023-03-25T00:54:38;99621.56;;;9.63;100.00
26775;BME280;14362;51.902;7.626;2023-03-25T00:58:40;99620.06;;;9.66;100.00
26775;BME280;14362;51.902;7.626;2023-03-25T01:02:42;99617.88;;;9.71;100.00
26775;BME280;14362;51.902;7.626;2023-03-25T01:06:44;99616.25;;;9.70;100.00
26775;BME280;14362;51.902;7.626;2023-03-25T01:10:51;99610.34;;;9.72;100.00
26775;BME280;14362;51.902;7.626;2023-03-25T01:14:54;99609.88;;;9.70;100.00
26775;BME280;14362;51.902;7.626;2023-03-25T01:18:56;99609.88;;;9.70;100.00
26775;BME280;14362;51.902;7.626;2023-03-25T01:22:57;99591.31;;;9.74;100.00
26775;BME280;14362;51.902;7.626;2023-03-25T01:26:59;99600.03;;;9.72;100.00
26775;BME280;14362;51.902;7.626;2023-03-25T01:31:03;99598.41;;;9.71;100.00
26775;BME280;14362;51.902;7.626;2023-03-25T01:35:05;99596.31;;;9.68;100.00
26775;BME280;14362;51.902;7.626;2023-03-25T01:39:07;99589.25;;;9.71;100.00
26775;BME280;14362;51.902;7.626;2023-03-25T01:43:10;99588.91;;;9.72;100.00
26775;BME280;14362;51.902;7.626;2023-03-25T01:47:14;99590.31;;;9.78;100.00
26775;BME280;14362;51.902;7.626;2023-03-25T01:51:19;99586.69;;;9.78;100.00
26775;BME280;14362;51.902;7.626;2023-03-25T01:55:22;99593.09;;;9.78;100.00
26775;BME280;14362;51.902;7.626;2023-03-25T01:59:27;99584.94;;;9.73;100.00
26775;BME280;14362;51.902;7.626;2023-03-25T02:03:31;99597.72;;;9.74;100.00
26775;BME280;14362;51.902;7.626;2023-03-25T02:07:38;99587.06;;;9.76;100.00
26775;BME280;14362;51.902;7.626;2023-03-25T02:11:41;99588.53;;;9.74;100.00
26775;BME280;14362;51.902;7.626;2023-03-25T02:15:55;99572.88;;;9.69;100.00
26775;BME280;14362;51.902;7.626;2023-03-25T02:20:36;99589.34;;;9.62;100.00
26775;BME280;14362;51.902;7.626;2023-03-25T02:25:12;99591.44;;;9.65;100.00
26775;BME280;14362;51.902;7.626;2023-03-25T02:29:25;99589.22;;;9.59;100.00
26775;BME280;14362;51.902;7.626;2023-03-25T02:33:53;99572.53;;;9.59;100.00
26775;BME280;14362;51.902;7.626;2023-03-25T02:38:11;99566.16;;;9.58;100.00
26775;BME280;14362;51.902;7.626;2023-03-25T02:42:17;99565.22;;;9.54;100.00
26775;BME280;14362;51.902;7.626;2023-03-25T02:46:24;99575.88;;;9.52;100.00
26775;BME280;14362;51.902;7.626;2023-03-25T02:50:29;99575.53;;;9.54;100.00
26775;BME280;14362;51.902;7.626;2023-03-25T02:54:36;99586.06;;;9.48;100.00
26775;BME280;14362;51.902;7.626;2023-03-25T02:58:41;99586.06;;;9.36;100.00
26775;BME280;14362;51.902;7.626;2023-03-25T03:02:47;99569.34;;;9.24;100.00
26775;BME280;14362;51.902;7.626;2023-03-25T03:06:54;99580.41;;;9.13;100.00
26775;BME280;14362;51.902;7.626;2023-03-25T03:11:04;99582.59;;;9.07;100.00
26775;BME280;14362;51.902;7.626;2023-03-25T03:19:35;99588.25;;;8.99;100.00
26775;BME280;14362;51.902;7.626;2023-03-25T03:23:46;99588.81;;;8.92;100.00
26775;BME280;14362;51.902;7.626;2023-03-25T03:27:54;99574.84;;;8.80;100.00
26775;BME280;14362;51.902;7.626;2023-03-25T03:32:01;99575.59;;;8.69;100.00
26775;BME280;14362;51.902;7.626;2023-03-25T03:36:07;99571.22;;;8.68;100.00
26775;BME280;14362;51.902;7.626;2023-03-25T03:40:13;99571.91;;;8.65;100.00
26775;BME280;14362;51.902;7.626;2023-03-25T03:44:21;99575.16;;;8.67;100.00
26775;BME280;14362;51.902;7.626;2023-03-25T03:48:28;99574.66;;;8.65;100.00
26775;BME280;14362;51.902;7.626;2023-03-25T03:52:35;99572.38;;;8.67;100.00
26775;BME280;14362;51.902;7.626;2023-03-25T03:56:40;99575.94;;;8.67;100.00
26775;BME280;14362;51.902;7.626;2023-03-25T04:00:49;99578.53;;;8.72;100.00
26775;BME280;14362;51.902;7.626;2023-03-25T04:04:53;99572.63;;;8.74;100.00
26775;BME280;14362;51.902;7.626;2023-03-25T04:08:56;99571.94;;;8.77;100.00
26775;BME280;14362;51.902;7.626;2023-03-25T04:13:02;99577.97;;;8.79;100.00
26775;BME280;14362;51.902;7.626;2023-03-25T04:17:06;99575.19;;;8.79;100.00
26775;BME280;14362;51.902;7.626;2023-03-25T04:21:08;99586.09;;;8.84;100.00
26775;BME280;14362;51.902;7.626;2023-03-25T04:25:14;99564.56;;;8.81;100.00
26775;BME280;14362;51.902;7.626;2023-03-25T04:29:15;99568.13;;;8.81;100.00
26775;BME280;14362;51.902;7.626;2023-03-25T04:33:19;99564.34;;;8.86;100.00
26775;BME280;14362;51.902;7.626;2023-03-25T04:37:21;99565.50;;;8.85;100.00
26775;BME280;14362;51.902;7.626;2023-03-25T04:41:23;99570.34;;;8.88;100.00
26775;BME280;14362;51.902;7.626;2023-03-25T04:45:25;99560.63;;;8.82;100.00
26775;BME280;14362;51.902;7.626;2023-03-25T04:49:29;99565.34;;;8.81;100.00
26775;BME280;14362;51.902;7.626;2023-03-25T04:53:30;99564.69;;;8.84;100.00
26775;BME280;14362;51.902;7.626;2023-03-25T04:57:32;99557.28;;;8.88;100.00
26775;BME280;14362;51.902;7.626;2023-03-25T05:01:35;99553.69;;;8.88;100.00
26775;BME280;14362;51.902;7.626;2023-03-25T05:05:42;99560.88;;;8.89;100.00
26775;BME280;14362;51.902;7.626;2023-03-25T05:09:43;99555.47;;;8.92;100.00
26775;BME280;14362;51.902;7.626;2023-03-25T05:13:45;99554.97;;;8.90;100.00
26775;BME280;14362;51.902;7.626;2023-03-25T05:17:46;99559.47;;;8.83;100.00
26775;BME280;14362;51.902;7.626;2023-03-25T05:21:49;99558.63;;;8.82;100.00
26775;BME280;14362;51.902;7.626;2023-03-25T05:25:51;99566.03;;;8.78;100.00
26775;BME280;14362;51.902;7.626;2023-03-25T05:29:52;99566.03;;;8.78;100.00
26775;BME280;14362;51.902;7.626;2023-03-25T05:33:57;99563.13;;;8.75;100.00
26775;BME280;14362;51.902;7.626;2023-03-25T05:38:00;99569.72;;;8.70;100.00
26775;BME280;14362;51.902;7.626;2023-03-25T05:42:02;99569.59;;;8.67;100.00
26775;BME280;14362;51.902;7.626;2023-03-25T05:46:03;99572.22;;;8.63;100.00
26775;BME280;14362;51.902;7.626;2023-03-25T05:50:06;99583.00;;;8.65;100.00
26775;BME280;14362;51.902;7.626;2023-03-25T05:54:10;99582.03;;;8.61;100.00
26775;BME280;14362;51.902;7.626;2023-03-25T05:58:12;99579.19;;;8.69;100.00
26775;BME280;14362;51.902;7.626;2023-03-25T06:02:15;99580.00;;;8.70;100.00
26775;BME280;14362;51.902;7.626;2023-03-25T06:06:17;99586.19;;;8.75;100.00
26775;BME280;14362;51.902;7.626;2023-03-25T06:10:20;99583.66;;;8.82;100.00
26775;BME280;14362;51.902;7.626;2023-03-25T06:14:22;99594.63;;;8.79;100.00
26775;BME280;14362;51.902;7.626;2023-03-25T06:18:24;99587.94;;;8.80;100.00
26775;BME280;14362;51.902;7.626;2023-03-25T06:22:26;99583.06;;;8.77;100.00
26775;BME280;14362;51.902;7.626;2023-03-25T06:26:28;99578.91;;;8.83;100.00
26775;BME280;14362;51.902;7.626;2023-03-25T06:30:31;99596.53;;;8.87;100.00
26775;BME280;14362;51.902;7.626;2023-03-25T06:34:33;99591.50;;;8.80;100.00
26775;BME280;14362;51.902;7.626;2023-03-25T06:38:34;99588.72;;;8.80;100.00
26775;BME280;14362;51.902;7.626;2023-03-25T06:42:37;99607.09;;;8.73;100.00
26775;BME280;14362;51.902;7.626;2023-03-25T06:46:38;99602.56;;;8.68;100.00
26775;BME280;14362;51.902;7.626;2023-03-25T06:50:40;99593.69;;;8.75;100.00
26775;BME280;14362;51.902;7.626;2023-03-25T06:54:41;99603.31;;;8.77;100.00
26775;BME280;14362;51.902;7.626;2023-03-25T06:58:44;99597.28;;;8.75;100.00
26775;BME280;14362;51.902;7.626;2023-03-25T07:02:45;99596.59;;;8.78;100.00
26775;BME280;14362;51.902;7.626;2023-03-25T07:06:47;99582.38;;;8.80;100.00
26775;BME280;14362;51.902;7.626;2023-03-25T07:10:48;99587.03;;;8.88;100.00
26775;BME280;14362;51.902;7.626;2023-03-25T07:14:51;99577.34;;;8.94;100.00
26775;BME280;14362;51.902;7.626;2023-03-25T07:18:53;99578.47;;;8.93;100.00
26775;BME280;14362;51.902;7.626;2023-03-25T07:22:55;99575.41;;;9.06;100.00
26775;BME280;14362;51.902;7.626;2023-03-25T07:26:57;99579.00;;;9.07;100.00
26775;BME280;14362;51.902;7.626;2023-03-25T07:30:59;99590.84;;;9.15;100.00
26775;BME280;14362;51.902;7.626;2023-03-25T07:35:01;99576.28;;;9.30;100.00
26775;BME280;14362;51.902;7.626;2023-03-25T07:39:02;99579.25;;;9.58;100.00
26775;BME280;14362;51.902;7.626;2023-03-25T07:43:05;99589.94;;;9.68;100.00
26775;BME280;14362;51.902;7.626;2023-03-25T07:47:08;99584.38;;;9.92;100.00
26775;BME280;14362;51.902;7.626;2023-03-25T07:51:09;99584.72;;;9.90;100.00
26775;BME280;14362;51.902;7.626;2023-03-25T07:55:11;99588.78;;;9.81;100.00
26775;BME280;14362;51.902;7.626;2023-03-25T07:59:13;99589.84;;;9.76;100.00
26775;BME280;14362;51.902;7.626;2023-03-25T08:03:16;99590.53;;;9.85;100.00
26775;BME280;14362;51.902;7.626;2023-03-25T08:07:17;99592.56;;;10.09;100.00
26775;BME280;14362;51.902;7.626;2023-03-25T08:11:19;99598.06;;;9.97;100.00
26775;BME280;14362;51.902;7.626;2023-03-25T08:15:21;99586.81;;;9.93;100.00
26775;BME280;14362;51.902;7.626;2023-03-25T08:19:25;99609.09;;;9.93;100.00
26775;BME280;14362;51.902;7.626;2023-03-25T08:23:27;99615.13;;;9.95;100.00
26775;BME280;14362;51.902;7.626;2023-03-25T08:27:28;99616.09;;;10.11;100.00
26775;BME280;14362;51.902;7.626;2023-03-25T08:31:30;99614.56;;;10.25;100.00
26775;BME280;14362;51.902;7.626;2023-03-25T08:35:35;99616.09;;;10.35;100.00
26775;BME280;14362;51.902;7.626;2023-03-25T08:39:37;99616.94;;;10.63;100.00
26775;BME280;14362;51.902;7.626;2023-03-25T08:43:41;99597.31;;;10.71;100.00
26775;BME280;14362;51.902;7.626;2023-03-25T08:47:42;99598.25;;;11.03;100.00
26775;BME280;14362;51.902;7.626;2023-03-25T08:51:46;99606.81;;;11.10;100.00
26775;BME280;14362;51.902;7.626;2023-03-25T08:55:49;99612.50;;;11.13;100.00
26775;BME280;14362;51.902;7.626;2023-03-25T08:59:52;99601.25;;;11.10;100.00
26775;BME280;14362;51.902;7.626;2023-03-25T09:03:53;99609.50;;;11.06;100.00
26775;BME280;14362;51.902;7.626;2023-03-25T09:07:58;99600.13;;;10.99;100.00
26775;BME280;14362;51.902;7.626;2023-03-25T09:11:59;99612.34;;;10.94;100.00
26775;BME280;14362;51.902;7.626;2023-03-25T09:16:01;99609.25;;;10.84;100.00
26775;BME280;14362;51.902;7.626;2023-03-25T09:20:03;99604.59;;;10.88;100.00
26775;BME280;14362;51.902;7.626;2023-03-25T09:24:08;99608.31;;;11.07;100.00
26775;BME280;14362;51.902;7.626;2023-03-25T09:28:09;99608.31;;;11.07;100.00
26775;BME280;14362;51.902;7.626;2023-03-25T09:32:11;99617.31;;;11.01;100.00
26775;BME280;14362;51.902;7.626;2023-03-25T09:36:14;99619.38;;;11.04;100.00
26775;BME280;14362;51.902;7.626;2023-03-25T09:40:18;99616.38;;;10.97;100.00
26775;BME280;14362;51.902;7.626;2023-03-25T09:44:25;99634.19;;;10.92;100.00
26775;BME280;14362;51.902;7.626;2023-03-25T09:48:31;99633.84;;;10.82;100.00
26775;BME280;14362;51.902;7.626;2023-03-25T09:52:38;99645.47;;;10.84;100.00
26775;BME280;14362;51.902;7.626;2023-03-25T09:56:50;99644.47;;;10.64;100.00
26775;BME280;14362;51.902;7.626;2023-03-25T10:00:55;99647.97;;;10.49;100.00
26775;BME280;14362;51.902;7.626;2023-03-25T10:05:15;99633.22;;;10.49;100.00
26775;BME280;14362;51.902;7.626;2023-03-25T10:09:33;99633.94;;;10.46;100.00
26775;BME280;14362;51.902;7.626;2023-03-25T10:13:44;99626.66;;;10.93;100.00
26775;BME280;14362;51.902;7.626;2023-03-25T10:17:58;99620.47;;;11.26;100.00
26775;BME280;14362;51.902;7.626;2023-03-25T10:22:06;99633.72;;;11.45;100.00
26775;BME280;14362;51.902;7.626;2023-03-25T10:26:11;99634.31;;;11.50;100.00
26775;BME280;14362;51.902;7.626;2023-03-25T10:30:18;99655.34;;;11.48;100.00
26775;BME280;14362;51.902;7.626;2023-03-25T10:34:28;99658.34;;;11.00;100.00
26775;BME280;14362;51.902;7.626;2023-03-25T10:38:35;99661.63;;;10.66;100.00
26775;BME280;14362;51.902;7.626;2023-03-25T10:42:39;99669.91;;;10.63;100.00
26775;BME280;14362;51.902;7.626;2023-03-25T10:46:45;99662.81;;;10.65;100.00
26775;BME280;14362;51.902;7.626;2023-03-25T10:50:49;99665.13;;;10.75;100.00
26775;BME280;14362;51.902;7.626;2023-03-25T10:54:54;99644.06;;;10.90;100.00
26775;BME280;14362;51.902;7.626;2023-03-25T10:58:57;99664.16;;;10.95;100.00
26775;BME280;14362;51.902;7.626;2023-03-25T11:03:01;99660.28;;;11.00;100.00
26775;BME280;14362;51.902;7.626;2023-03-25T11:07:14;99655.00;;;10.83;100.00
26775;BME280;14362;51.902;7.626;2023-03-25T11:11:16;99651.38;;;10.94;100.00
26775;BME280;14362;51.902;7.626;2023-03-25T11:15:20;99637.84;;;11.08;100.00
26775;BME280;14362;51.902;7.626;2023-03-25T11:19:26;99633.03;;;11.20;100.00
26775;BME280;14362;51.902;7.626;2023-03-25T11:23:30;99637.97;;;11.39;100.00
26775;BME280;14362;51.902;7.626;2023-03-25T11:27:40;99632.31;;;11.51;100.00
26775;BME280;14362;51.902;7.626;2023-03-25T11:31:57;99625.16;;;11.65;100.00
26775;BME280;14362;51.902;7.626;2023-03-25T11:36:23;99621.59;;;11.80;100.00
26775;BME280;14362;51.902;7.626;2023-03-25T11:40:28;99640.91;;;11.73;100.00
26775;BME280;14362;51.902;7.626;2023-03-25T11:44:31;99620.47;;;11.54;100.00
26775;BME280;14362;51.902;7.626;2023-03-25T11:48:36;99614.19;;;11.29;100.00
26775;BME280;14362;51.902;7.626;2023-03-25T11:52:43;99607.72;;;11.14;100.00
26775;BME280;14362;51.902;7.626;2023-03-25T11:56:47;99613.50;;;10.93;100.00
26775;BME280;14362;51.902;7.626;2023-03-25T12:00:51;99638.09;;;10.52;100.00
26775;BME280;14362;51.902;7.626;2023-03-25T12:05:01;99664.69;;;10.02;100.00
26775;BME280;14362;51.902;7.626;2023-03-25T12:09:09;99658.25;;;9.89;100.00
26775;BME280;14362;51.902;7.626;2023-03-25T12:13:16;99658.66;;;10.00;100.00
26775;BME280;14362;51.902;7.626;2023-03-25T12:17:31;99654.03;;;10.27;100.00
26775;BME280;14362;51.902;7.626;2023-03-25T12:21:43;99660.13;;;10.57;100.00
26775;BME280;14362;51.902;7.626;2023-03-25T12:25:55;99663.59;;;10.78;100.00
26775;BME280;14362;51.902;7.626;2023-03-25T12:30:11;99653.47;;;10.85;100.00
26775;BME280;14362;51.902;7.626;2023-03-25T12:34:23;99645.84;;;10.82;100.00
26775;BME280;14362;51.902;7.626;2023-03-25T12:38:37;99643.31;;;10.65;100.00
26775;BME280;14362;51.902;7.626;2023-03-25T12:42:50;99629.97;;;10.47;100.00
26775;BME280;14362;51.902;7.626;2023-03-25T12:47:06;99651.22;;;10.51;100.00
26775;BME280;14362;51.902;7.626;2023-03-25T12:51:19;99646.47;;;10.40;100.00
26775;BME280;14362;51.902;7.626;2023-03-25T12:55:35;99656.00;;;10.15;100.00
26775;BME280;14362;51.902;7.626;2023-03-25T12:59:49;99629.06;;;10.07;100.00
26775;BME280;14362;51.902;7.626;2023-03-25T13:04:06;99619.44;;;10.28;100.00
26775;BME280;14362;51.902;7.626;2023-03-25T13:08:13;99622.88;;;10.61;100.00
26775;BME280;14362;51.902;7.626;2023-03-25T13:12:26;99623.22;;;10.72;100.00
26775;BME280;14362;51.902;7.626;2023-03-25T13:16:30;99615.78;;;10.64;100.00
26775;BME280;14362;51.902;7.626;2023-03-25T13:20:38;99611.59;;;10.58;100.00
26775;BME280;14362;51.902;7.626;2023-03-25T13:24:45;99626.00;;;10.60;100.00
26775;BME280;14362;51.902;7.626;2023-03-25T13:28:53;99634.41;;;10.36;100.00
26775;BME280;14362;51.902;7.626;2023-03-25T13:33:04;99648.78;;;10.26;100.00
26775;BME280;14362;51.902;7.626;2023-03-25T13:37:11;99646.72;;;10.35;100.00
26775;BME280;14362;51.902;7.626;2023-03-25T13:41:18;99643.81;;;10.43;100.00
26775;BME280;14362;51.902;7.626;2023-03-25T13:45:24;99639.13;;;10.47;100.00
26775;BME280;14362;51.902;7.626;2023-03-25T13:49:29;99614.06;;;10.47;100.00
26775;BME280;14362;51.902;7.626;2023-03-25T13:53:35;99629.53;;;10.45;100.00
26775;BME280;14362;51.902;7.626;2023-03-25T13:57:58;99616.97;;;10.51;100.00
26775;BME280;14362;51.902;7.626;2023-03-25T14:02:33;99641.38;;;10.30;100.00
26775;BME280;14362;51.902;7.626;2023-03-25T14:06:55;99645.56;;;10.00;100.00
26775;BME280;14362;51.902;7.626;2023-03-25T14:11:14;99638.66;;;9.98;100.00
26775;BME280;14362;51.902;7.626;2023-03-25T14:15:18;99650.84;;;9.93;100.00
26775;BME280;14362;51.902;7.626;2023-03-25T14:19:24;99653.25;;;9.71;100.00
26775;BME280;14362;51.902;7.626;2023-03-25T14:23:29;99657.50;;;9.56;100.00
26775;BME280;14362;51.902;7.626;2023-03-25T14:27:32;99664.41;;;9.50;100.00
26775;BME280;14362;51.902;7.626;2023-03-25T14:31:34;99642.38;;;9.45;100.00
26775;BME280;14362;51.902;7.626;2023-03-25T14:35:46;99650.09;;;9.60;100.00
26775;BME280;14362;51.902;7.626;2023-03-25T14:39:49;99644.88;;;10.15;100.00
26775;BME280;14362;51.902;7.626;2023-03-25T14:43:51;99645.63;;;10.51;100.00
26775;BME280;14362;51.902;7.626;2023-03-25T14:48:26;99632.44;;;10.36;100.00
26775;BME280;14362;51.902;7.626;2023-03-25T14:52:31;99655.19;;;10.26;100.00
26775;BME280;14362;51.902;7.626;2023-03-25T14:56:36;99646.00;;;10.26;100.00
26775;BME280;14362;51.902;7.626;2023-03-25T15:00:41;99643.09;;;10.34;100.00
26775;BME280;14362;51.902;7.626;2023-03-25T15:04:44;99661.53;;;10.63;100.00
26775;BME280;14362;51.902;7.626;2023-03-25T15:08:50;99655.63;;;10.64;100.00
26775;BME280;14362;51.902;7.626;2023-03-25T15:13:01;99650.38;;;10.63;100.00
26775;BME280;14362;51.902;7.626;2023-03-25T15:17:06;99636.41;;;10.87;100.00
26775;BME280;14362;51.902;7.626;2023-03-25T15:21:10;99627.91;;;10.95;100.00
26775;BME280;14362;51.902;7.626;2023-03-25T15:25:14;99636.50;;;11.02;100.00
26775;BME280;14362;51.902;7.626;2023-03-25T15:29:38;99640.84;;;10.76;100.00
26775;BME280;14362;51.902;7.626;2023-03-25T15:33:59;99644.81;;;10.75;100.00
26775;BME280;14362;51.902;7.626;2023-03-25T15:38:22;99630.59;;;10.80;100.00
26775;BME280;14362;51.902;7.626;2023-03-25T15:47:08;99633.78;;;10.66;100.00
26775;BME280;14362;51.902;7.626;2023-03-25T15:51:27;99632.53;;;10.52;100.00
26775;BME280;14362;51.902;7.626;2023-03-25T15:55:35;99632.53;;;10.52;100.00
26775;BME280;14362;51.902;7.626;2023-03-25T15:59:40;99629.41;;;10.41;100.00
26775;BME280;14362;51.902;7.626;2023-03-25T16:03:53;99627.78;;;10.40;100.00
26775;BME280;14362;51.902;7.626;2023-03-25T16:07:58;99641.94;;;10.35;100.00
26775;BME280;14362;51.902;7.626;2023-03-25T16:12:01;99690.91;;;10.36;100.00
26775;BME280;14362;51.902;7.626;2023-03-25T16:16:03;99691.72;;;10.13;100.00
26775;BME280;14362;51.902;7.626;2023-03-25T16:20:12;99704.88;;;9.80;100.00
26775;BME280;14362;51.902;7.626;2023-03-25T16:24:17;99690.03;;;9.88;100.00
26775;BME280;14362;51.902;7.626;2023-03-25T16:28:25;99687.06;;;9.73;100.00
26775;BME280;14362;51.902;7.626;2023-03-25T16:32:30;99686.63;;;9.71;100.00
26775;BME280;14362;51.902;7.626;2023-03-25T16:36:34;99684.44;;;9.76;100.00
26775;BME280;14362;51.902;7.626;2023-03-25T16:40:37;99684.28;;;9.73;100.00
26775;BME280;14362;51.902;7.626;2023-03-25T16:44:46;99701.22;;;9.68;100.00
26775;BME280;14362;51.902;7.626;2023-03-25T16:48:50;99689.56;;;9.54;100.00
26775;BME280;14362;51.902;7.626;2023-03-25T16:52:53;99694.81;;;9.55;100.00
26775;BME280;14362;51.902;7.626;2023-03-25T16:56:58;99702.19;;;9.51;100.00
26775;BME280;14362;51.902;7.626;2023-03-25T17:01:01;99707.28;;;9.49;100.00
26775;BME280;14362;51.902;7.626;2023-03-25T17:05:12;99710.91;;;9.50;100.00
26775;BME280;14362;51.902;7.626;2023-03-25T17:09:18;99733.28;;;9.53;100.00
26775;BME280;14362;51.902;7.626;2023-03-25T17:13:24;99735.38;;;9.56;100.00
26775;BME280;14362;51.902;7.626;2023-03-25T17:17:34;99819.28;;;9.17;100.00
26775;BME280;14362;51.902;7.626;2023-03-25T17:21:58;99781.44;;;7.84;100.00
26775;BME280;14362;51.902;7.626;2023-03-25T17:26:05;99775.75;;;7.72;100.00
26775;BME280;14362;51.902;7.626;2023-03-25T17:30:16;99792.88;;;7.57;100.00
26775;BME280;14362;51.902;7.626;2023-03-25T17:34:20;99822.88;;;7.47;100.00
26775;BME280;14362;51.902;7.626;2023-03-25T17:38:25;99842.78;;;7.49;100.00
26775;BME280;14362;51.902;7.626;2023-03-25T17:42:30;99836.44;;;7.48;100.00
26775;BME280;14362;51.902;7.626;2023-03-25T17:46:33;99835.31;;;7.49;100.00
26775;BME280;14362;51.902;7.626;2023-03-25T17:50:35;99835.59;;;7.48;100.00
26775;BME280;14362;51.902;7.626;2023-03-25T17:54:37;99841.84;;;7.53;100.00
26775;BME280;14362;51.902;7.626;2023-03-25T17:58:39;99847.38;;;7.53;100.00
26775;BME280;14362;51.902;7.626;2023-03-25T18:02:41;99861.25;;;7.53;100.00
26775;BME280;14362;51.902;7.626;2023-03-25T18:06:43;99855.19;;;7.51;100.00
26775;BME280;14362;51.902;7.626;2023-03-25T18:10:45;99862.38;;;7.52;100.00
26775;BME280;14362;51.902;7.626;2023-03-25T18:14:48;99873.13;;;7.45;100.00
26775;BME280;14362;51.902;7.626;2023-03-25T18:18:50;99875.41;;;7.52;100.00
26775;BME280;14362;51.902;7.626;2023-03-25T18:22:51;99881.78;;;7.52;100.00
26775;BME280;14362;51.902;7.626;2023-03-25T18:26:53;99879.81;;;7.53;100.00
26775;BME280;14362;51.902;7.626;2023-03-25T18:30:57;99901.38;;;7.64;100.00
26775;BME280;14362;51.902;7.626;2023-03-25T18:34:59;99903.16;;;7.69;100.00
26775;BME280;14362;51.902;7.626;2023-03-25T18:39:00;99889.63;;;7.67;100.00
26775;BME280;14362;51.902;7.626;2023-03-25T18:43:03;99891.56;;;7.58;100.00
26775;BME280;14362;51.902;7.626;2023-03-25T18:47:07;99889.94;;;7.66;100.00
26775;BME280;14362;51.902;7.626;2023-03-25T18:51:10;99902.16;;;7.56;100.00
26775;BME280;14362;51.902;7.626;2023-03-25T18:55:12;99907.88;;;7.51;100.00
26775;BME280;14362;51.902;7.626;2023-03-25T18:59:16;99904.63;;;7.49;100.00
26775;BME280;14362;51.902;7.626;2023-03-25T19:03:21;99921.06;;;7.46;100.00
26775;BME280;14362;51.902;7.626;2023-03-25T19:07:29;99926.78;;;7.49;100.00
26775;BME280;14362;51.902;7.626;2023-03-25T19:11:30;99932.66;;;7.48;100.00
26775;BME280;14362;51.902;7.626;2023-03-25T19:15:32;99923.69;;;7.51;100.00
26775;BME280;14362;51.902;7.626;2023-03-25T19:19:35;99930.06;;;7.51;100.00
26775;BME280;14362;51.902;7.626;2023-03-25T19:23:37;99920.59;;;7.52;100.00
26775;BME280;14362;51.902;7.626;2023-03-25T19:27:41;99905.28;;;7.55;100.00
26775;BME280;14362;51.902;7.626;2023-03-25T19:31:43;99914.25;;;7.60;100.00
26775;BME280;14362;51.902;7.626;2023-03-25T19:35:49;99940.03;;;7.61;100.00
26775;BME280;14362;51.902;7.626;2023-03-25T19:39:53;99942.81;;;7.69;100.00
26775;BME280;14362;51.902;7.626;2023-03-25T19:43:55;99942.81;;;7.69;100.00
26775;BME280;14362;51.902;7.626;2023-03-25T19:47:56;99941.50;;;7.75;100.00
26775;BME280;14362;51.902;7.626;2023-03-25T19:51:59;99927.97;;;7.74;100.00
26775;BME280;14362;51.902;7.626;2023-03-25T19:56:01;99921.28;;;7.75;100.00
26775;BME280;14362;51.902;7.626;2023-03-25T20:00:05;99925.84;;;7.71;100.00
26775;BME280;14362;51.902;7.626;2023-03-25T20:04:11;99918.00;;;7.73;100.00
26775;BME280;14362;51.902;7.626;2023-03-25T20:08:14;99925.19;;;7.65;100.00
26775;BME280;14362;51.902;7.626;2023-03-25T20:12:15;99919.78;;;7.60;100.00
26775;BME280;14362;51.902;7.626;2023-03-25T20:16:17;99925.03;;;7.62;100.00
26775;BME280;14362;51.902;7.626;2023-03-25T20:20:19;99918.00;;;7.56;100.00
26775;BME280;14362;51.902;7.626;2023-03-25T20:24:22;99928.44;;;7.59;100.00
26775;BME280;14362;51.902;7.626;2023-03-25T20:28:24;99922.88;;;7.50;100.00
26775;BME280;14362;51.902;7.626;2023-03-25T20:32:25;99930.72;;;7.48;100.00
26775;BME280;14362;51.902;7.626;2023-03-25T20:36:27;99922.38;;;7.48;100.00
26775;BME280;14362;51.902;7.626;2023-03-25T20:40:29;99925.97;;;7.49;100.00
26775;BME280;14362;51.902;7.626;2023-03-25T20:44:31;99928.94;;;7.52;100.00
26775;BME280;14362;51.902;7.626;2023-03-25T20:48:33;99928.25;;;7.55;100.00
26775;BME280;14362;51.902;7.626;2023-03-25T20:52:35;99926.81;;;7.58;100.00
26775;BME280;14362;51.902;7.626;2023-03-25T20:56:38;99941.66;;;7.62;100.00
26775;BME280;14362;51.902;7.626;2023-03-25T21:00:40;99938.91;;;7.62;100.00
26775;BME280;14362;51.902;7.626;2023-03-25T21:04:44;99946.38;;;7.61;100.00
26775;BME280;14362;51.902;7.626;2023-03-25T21:08:45;99941.66;;;7.62;100.00
26775;BME280;14362;51.902;7.626;2023-03-25T21:12:48;99943.44;;;7.58;100.00
26775;BME280;14362;51.902;7.626;2023-03-25T21:16:49;99944.25;;;7.58;100.00
26775;BME280;14362;51.902;7.626;2023-03-25T21:20:54;99948.00;;;7.62;100.00
26775;BME280;14362;51.902;7.626;2023-03-25T21:24:56;99955.34;;;7.58;100.00
26775;BME280;14362;51.902;7.626;2023-03-25T21:28:59;99957.31;;;7.58;100.00
26775;BME280;14362;51.902;7.626;2023-03-25T21:33:00;99968.72;;;7.56;100.00
26775;BME280;14362;51.902;7.626;2023-03-25T21:37:02;99980.78;;;7.60;100.00
26775;BME280;14362;51.902;7.626;2023-03-25T21:41:05;99974.75;;;7.67;100.00
26775;BME280;14362;51.902;7.626;2023-03-25T21:45:09;99979.66;;;7.70;100.00